Luze — CURH9 — position and weather

sailwx.info

Track history (hours):
 
Tides and Currents Weather Stations Pressure Air Temp Water Temp Dewpoint Dewpoint Depression Visibility Wind Speed Wind Dir Waves Ship Positions

Luze

Last reported at 2018-Feb-23 16:34 UTC. Time now 2018-Feb-25 22:08 UTC.
Position N 38°26' W 009°07'.

Length 20 m.

Type: Fishing. MMSI: 263500360.

Date/timePositionNaut miles runAvg speedWind from/ knotsBaromVisibWave heightAir tempDewpointWater temp
2018-Feb-23 16:34N 38°26' W 009°07'0 0.0
2018-Feb-23 16:30N 38°26' W 009°07'0 0.0
2018-Feb-21 18:00N 38°26' W 009°07'0 0.0
2018-Feb-21 17:30N 38°26' W 009°07'0 0.0
2018-Feb-21 17:00N 38°26' W 009°07'0 0.0
2018-Feb-21 16:30N 38°26' W 009°07'0 0.0
2018-Feb-21 16:00N 38°26' W 009°07'0 0.0
2018-Feb-21 15:30N 38°26' W 009°07'0 0.2
2018-Feb-21 15:00N 38°26' W 009°07'2 3.1
2018-Feb-21 14:30N 38°25' W 009°08'4 8.2
2018-Feb-21 14:00N 38°25' W 009°13'4 8.3
2018-Feb-21 13:30N 38°28' W 009°17'4 8.3
2018-Feb-21 13:00N 38°31' W 009°19'4 8.4
2018-Feb-21 12:29N 38°35' W 009°22'0 0.5
2018-Feb-21 11:59N 38°35' W 009°22'1 1.4
2018-Feb-21 11:30N 38°35' W 009°22'1 1.3
2018-Feb-21 11:00N 38°34' W 009°21'1 1.8
2018-Feb-21 10:30N 38°33' W 009°22'1 1.9
2018-Feb-21 09:57N 38°34' W 009°22'1 2.1
2018-Feb-21 09:29N 38°35' W 009°23'1 1.9
2018-Feb-21 09:01N 38°36' W 009°24'1 1.5
2018-Feb-21 08:30N 38°35' W 009°23'1 2.1
2018-Feb-21 08:00N 38°34' W 009°23'1 1.5
2018-Feb-21 07:31N 38°33' W 009°23'1 2.0
2018-Feb-21 07:01N 38°33' W 009°22'1 1.4
2018-Feb-21 06:30N 38°32' W 009°22'1 1.3
2018-Feb-21 06:00N 38°31' W 009°21'1 1.2
2018-Feb-21 05:30N 38°31' W 009°21'0 1.0
2018-Feb-21 05:00N 38°31' W 009°20'2 3.8
2018-Feb-21 04:30N 38°29' W 009°19'3 5.1
2018-Feb-21 03:59N 38°27' W 009°16'3 7.2
2018-Feb-21 03:30N 38°25' W 009°14'4 7.1
2018-Feb-21 03:00N 38°25' W 009°09'2 4.4
2018-Feb-21 02:30N 38°26' W 009°07'0 0.2
2018-Feb-21 02:00N 38°26' W 009°07'0 0.1
2018-Feb-21 01:30N 38°26' W 009°07'0 0.0
2018-Feb-21 01:00N 38°26' W 009°07'0 0.0
2018-Feb-21 00:30N 38°26' W 009°07'0 0.0
2018-Feb-21 00:01N 38°26' W 009°07'0 0.0
2018-Feb-20 23:30N 38°26' W 009°07'0 0.0
2018-Feb-20 23:00N 38°26' W 009°07'0 0.0
2018-Feb-20 22:30N 38°26' W 009°07'0 0.0
2018-Feb-20 22:00N 38°26' W 009°07'0 0.0
2018-Feb-20 21:30N 38°26' W 009°07'0 0.0
2018-Feb-20 21:00N 38°26' W 009°07'0 0.0
2018-Feb-20 20:30N 38°26' W 009°07'0 0.0
2018-Feb-20 20:00N 38°26' W 009°07'0 0.0
2018-Feb-20 19:27N 38°26' W 009°07'0 0.0
2018-Feb-20 19:00N 38°26' W 009°07'0 0.0
2018-Feb-20 18:28N 38°26' W 009°07'2 4.8
2018-Feb-20 18:00N 38°25' W 009°09'3 6.6
2018-Feb-20 17:30N 38°23' W 009°13'4 8.7
2018-Feb-20 17:00N 38°27' W 009°16'4 8.6
2018-Feb-20 16:30N 38°30' W 009°20'4 8.5
2018-Feb-20 16:00N 38°33' W 009°23'1 2.6
2018-Feb-20 15:30N 38°35' W 009°23'1 1.2
2018-Feb-20 15:00N 38°35' W 009°22'3 4.9
2018-Feb-20 14:30N 38°36' W 009°19'1 1.7
2018-Feb-20 13:56N 38°37' W 009°20'1 1.1
2018-Feb-20 13:29N 38°37' W 009°20'1 2.1
2018-Feb-20 12:59N 38°36' W 009°20'1 1.4
2018-Feb-20 12:30N 38°35' W 009°21'0 0.1
2018-Feb-20 11:47N 38°35' W 009°21'0 0.4
2018-Feb-20 11:30N 38°35' W 009°21'0 0.3
2018-Feb-20 11:00N 38°35' W 009°21'1 1.5
2018-Feb-20 10:29N 38°36' W 009°21'0 0.4
2018-Feb-20 10:00N 38°36' W 009°22'0 0.3
2018-Feb-20 09:30N 38°36' W 009°22'1 1.3
2018-Feb-20 08:59N 38°36' W 009°22'1 2.4
2018-Feb-20 08:30N 38°37' W 009°23'0 0.8
2018-Feb-20 08:00N 38°37' W 009°24'1 2.5
2018-Feb-20 07:30N 38°36' W 009°23'1 1.6
2018-Feb-20 07:00N 38°36' W 009°22'1 1.1
2018-Feb-20 06:30N 38°36' W 009°21'1 1.1
2018-Feb-20 06:00N 38°35' W 009°21'2 3.5
2018-Feb-20 05:30N 38°37' W 009°20'3 5.6
2018-Feb-20 05:00N 38°34' W 009°19'4 7.5
2018-Feb-20 04:30N 38°31' W 009°17'4 7.4
2018-Feb-20 04:01N 38°27' W 009°15'3 6.7
2018-Feb-20 03:30N 38°24' W 009°13'4 7.2
2018-Feb-20 03:00N 38°25' W 009°08'2 3.1
2018-Feb-20 02:30N 38°26' W 009°07'0 0.0
2018-Feb-20 02:01N 38°26' W 009°07'0 0.0
2018-Feb-20 01:30N 38°26' W 009°07'0 0.0
2018-Feb-20 01:01N 38°26' W 009°07'0 0.0
2018-Feb-20 00:30N 38°26' W 009°07'0 0.0
2018-Feb-20 00:00N 38°26' W 009°07'0 0.0
2018-Feb-19 23:30N 38°26' W 009°07'0 0.0
2018-Feb-19 23:00N 38°26' W 009°07'0 0.0
2018-Feb-19 22:30N 38°26' W 009°07'0 0.0
2018-Feb-19 22:00N 38°26' W 009°07'0 0.0
2018-Feb-19 21:28N 38°26' W 009°07'0 0.0
2018-Feb-19 20:59N 38°26' W 009°07'0 0.0
2018-Feb-19 20:30N 38°26' W 009°07'0 0.0
2018-Feb-19 19:00N 38°26' W 009°07'0 0.0
2018-Feb-19 18:30N 38°26' W 009°07'0 0.0
2018-Feb-19 17:57N 38°26' W 009°07'0 0.0
2018-Feb-19 17:30N 38°26' W 009°07'0 0.2
2018-Feb-19 17:01N 38°26' W 009°07'1 1.7
2018-Feb-19 16:31N 38°26' W 009°07'4 8.5
2018-Feb-19 16:01N 38°24' W 009°13'4 8.3
2018-Feb-19 15:29N 38°28' W 009°16'4 8.5
2018-Feb-19 15:00N 38°31' W 009°18'4 8.4
2018-Feb-19 14:30N 38°35' W 009°21'1 1.7
2018-Feb-19 14:00N 38°36' W 009°22'1 2.1
2018-Feb-19 13:30N 38°36' W 009°23'2 3.3
2018-Feb-19 13:00N 38°35' W 009°21'1 1.7
2018-Feb-19 12:29N 38°36' W 009°21'1 1.4
2018-Feb-19 12:00N 38°37' W 009°22'0 1.0
2018-Feb-19 11:30N 38°37' W 009°23'1 1.8
2018-Feb-19 11:01N 38°36' W 009°22'0 0.3
2018-Feb-19 10:27N 38°36' W 009°22'0 0.8
2018-Feb-19 10:01N 38°36' W 009°22'1 2.4
2018-Feb-19 09:30N 38°34' W 009°21'0 0.9
2018-Feb-19 09:01N 38°34' W 009°21'1 2.2
2018-Feb-19 08:30N 38°35' W 009°22'1 2.0
2018-Feb-19 08:01N 38°36' W 009°22'1 1.8
2018-Feb-19 07:30N 38°37' W 009°23'3 5.8
2018-Feb-19 07:00N 38°35' W 009°20'0 0.3
2018-Feb-19 06:30N 38°34' W 009°20'2 3.4
2018-Feb-19 06:00N 38°33' W 009°22'1 1.1
2018-Feb-19 05:30N 38°33' W 009°22'0 0.7
2018-Feb-19 04:58N 38°33' W 009°22'0 0.8
2018-Feb-19 04:30N 38°33' W 009°22'3 6.6
2018-Feb-19 04:01N 38°31' W 009°20'3 6.9
2018-Feb-19 03:30N 38°27' W 009°18'3 6.8
2018-Feb-19 03:01N 38°24' W 009°16'3 6.7
2018-Feb-19 02:31N 38°22' W 009°13'3 6.5
2018-Feb-19 02:00N 38°19' W 009°11'3 6.1
2018-Feb-19 01:30N 38°17' W 009°09'3 6.2
2018-Feb-19 01:00N 38°14' W 009°06'3 5.9
2018-Feb-19 00:30N 38°11' W 009°05'3 5.8
2018-Feb-19 00:01N 38°09' W 009°03'3 6.2
2018-Feb-18 23:30N 38°06' W 009°01'4 7.1
2018-Feb-18 23:00N 38°02' W 009°01'0 0.4
2018-Feb-18 22:30N 38°02' W 009°01'1 2.3
2018-Feb-18 22:00N 38°03' W 009°01'1 2.2
2018-Feb-18 21:31N 38°05' W 009°01'1 1.6
2018-Feb-18 21:01N 38°05' W 009°01'1 1.8
2018-Feb-18 20:30N 38°06' W 009°01'1 1.6
2018-Feb-18 20:01N 38°07' W 009°01'2 4.6
2018-Feb-18 19:30N 38°09' W 009°01'3 5.3
2018-Feb-18 19:01N 38°10' W 009°04'1 2.0
2018-Feb-18 18:30N 38°11' W 009°04'1 1.8
2018-Feb-18 18:00N 38°11' W 009°04'1 2.1
2018-Feb-18 17:30N 38°10' W 009°04'1 1.5
2018-Feb-18 17:01N 38°09' W 009°04'3 5.2
2018-Feb-18 16:30N 38°12' W 009°05'1 1.2
2018-Feb-18 16:01N 38°11' W 009°05'1 1.9
2018-Feb-18 15:31N 38°10' W 009°05'1 1.6
2018-Feb-18 15:00N 38°09' W 009°05'0 0.6
2018-Feb-18 14:31N 38°09' W 009°05'3 6.8
2018-Feb-18 14:01N 38°06' W 009°03'2 4.8
2018-Feb-18 13:31N 38°09' W 009°03'1 1.5
2018-Feb-18 13:00N 38°08' W 009°03'1 2.1
2018-Feb-18 12:31N 38°07' W 009°03'1 2.1
2018-Feb-18 12:00N 38°06' W 009°03'1 3.0
2018-Feb-18 11:30N 38°07' W 009°04'1 1.6
2018-Feb-18 11:00N 38°08' W 009°04'1 1.7
2018-Feb-18 10:30N 38°08' W 009°05'1 1.5
2018-Feb-18 10:00N 38°09' W 009°05'3 5.7
2018-Feb-18 09:31N 38°12' W 009°07'3 5.6
2018-Feb-18 09:00N 38°14' W 009°09'3 5.8
2018-Feb-18 08:30N 38°16' W 009°11'3 5.9
2018-Feb-18 08:00N 38°19' W 009°12'3 5.9
2018-Feb-18 07:29N 38°22' W 009°14'3 5.9
2018-Feb-18 07:00N 38°24' W 009°16'3 6.1
2018-Feb-18 06:30N 38°27' W 009°17'3 6.2
2018-Feb-18 05:59N 38°30' W 009°19'3 6.1
2018-Feb-18 05:30N 38°33' W 009°21'3 5.7
2018-Feb-18 04:59N 38°35' W 009°22'0 0.5
2018-Feb-18 04:30N 38°35' W 009°22'1 2.6
2018-Feb-18 03:59N 38°34' W 009°22'1 2.0
2018-Feb-18 03:30N 38°33' W 009°22'2 4.7
2018-Feb-18 02:59N 38°35' W 009°21'1 2.6
2018-Feb-18 02:30N 38°36' W 009°22'1 1.5
2018-Feb-18 02:00N 38°35' W 009°22'2 3.2
2018-Feb-18 01:30N 38°37' W 009°23'4 7.1
2018-Feb-18 01:00N 38°39' W 009°19'3 5.3
2018-Feb-18 00:28N 38°41' W 009°17'3 5.3
2018-Feb-17 23:59N 38°42' W 009°14'0 0.0
2018-Feb-17 23:30N 38°42' W 009°14'0 0.0
2018-Feb-17 23:00N 38°42' W 009°14'0 0.0
2018-Feb-17 22:30N 38°42' W 009°14'0 0.0
2018-Feb-17 21:53N 38°42' W 009°14'0 0.0
2018-Feb-17 21:30N 38°42' W 009°14'0 0.0
2018-Feb-17 21:00N 38°42' W 009°14'0 0.0
2018-Feb-17 20:29N 38°42' W 009°14'0 0.0
2018-Feb-17 20:00N 38°42' W 009°14'0 0.0
2018-Feb-17 19:30N 38°42' W 009°14'0 0.0
2018-Feb-17 19:00N 38°42' W 009°14'0 0.0
2018-Feb-17 18:30N 38°42' W 009°14'0 0.0
2018-Feb-17 17:58N 38°42' W 009°14'0 0.0
2018-Feb-17 17:30N 38°42' W 009°14'0 0.0
2018-Feb-17 16:59N 38°42' W 009°14'0 0.0
2018-Feb-17 16:30N 38°42' W 009°14'0 0.0
2018-Feb-17 16:00N 38°42' W 009°14'0 0.0
2018-Feb-17 15:29N 38°42' W 009°14'0 0.0
2018-Feb-17 14:58N 38°42' W 009°14'0 0.5
2018-Feb-17 14:30N 38°41' W 009°14'510.1
2018-Feb-17 14:00N 38°39' W 009°19'3 6.5
2018-Feb-17 13:30N 38°37' W 009°23'1 1.8
2018-Feb-17 13:00N 38°37' W 009°24'0 0.5
2018-Feb-17 12:31N 38°37' W 009°24'1 2.5
2018-Feb-17 11:59N 38°37' W 009°23'0 0.2
2018-Feb-17 11:31N 38°37' W 009°22'1 1.0
2018-Feb-17 11:00N 38°37' W 009°23'1 1.9
2018-Feb-17 10:31N 38°36' W 009°24'1 1.1
2018-Feb-17 10:01N 38°36' W 009°23'1 1.6
2018-Feb-17 09:30N 38°37' W 009°22'0 0.7
2018-Feb-17 09:00N 38°37' W 009°22'0 0.2
2018-Feb-17 08:31N 38°37' W 009°22'0 0.4
2018-Feb-17 08:00N 38°37' W 009°22'1 1.3
2018-Feb-17 07:31N 38°37' W 009°23'1 1.2
2018-Feb-17 07:00N 38°37' W 009°24'1 1.3
2018-Feb-17 06:30N 38°37' W 009°23'1 1.0
2018-Feb-17 06:01N 38°37' W 009°22'0 0.2
2018-Feb-17 05:27N 38°36' W 009°23'0 0.5
2018-Feb-17 05:00N 38°36' W 009°23'1 1.3
2018-Feb-17 04:30N 38°36' W 009°22'4 7.5
2018-Feb-17 03:59N 38°32' W 009°21'4 8.3
2018-Feb-17 03:29N 38°29' W 009°17'4 8.1
2018-Feb-17 03:00N 38°25' W 009°14'4 6.8
2018-Feb-17 02:22N 38°25' W 009°09'2 6.1
2018-Feb-17 02:01N 38°26' W 009°07'0 0.3
2018-Feb-17 01:23N 38°26' W 009°07'0 0.0
2018-Feb-17 01:00N 38°26' W 009°07'0 0.0
2018-Feb-17 00:22N 38°26' W 009°07'0 0.0
2018-Feb-16 23:58N 38°26' W 009°07'0 0.0
2018-Feb-16 23:30N 38°26' W 009°07'0 0.0
2018-Feb-16 22:12N 38°26' W 009°07'0 0.0
2018-Feb-16 21:53N 38°26' W 009°07'0 0.0
2018-Feb-16 20:35N 38°26' W 009°07'0 0.0
2018-Feb-16 20:27N 38°26' W 009°07'0 0.0
2018-Feb-16 20:00N 38°26' W 009°07'0 0.0
2018-Feb-16 19:29N 38°26' W 009°07'0 0.0
2018-Feb-16 19:00N 38°26' W 009°07'0 0.0
2018-Feb-16 18:30N 38°26' W 009°07'0 0.0
2018-Feb-16 17:57N 38°26' W 009°07'0 0.0
2018-Feb-16 17:12N 38°26' W 009°07'0 0.6
2018-Feb-16 17:00N 38°26' W 009°07'0 0.0
2018-Feb-16 16:30N 38°26' W 009°07'3 5.1
2018-Feb-16 16:01N 38°25' W 009°09'4 8.2
2018-Feb-16 15:31N 38°25' W 009°15'4 8.5
2018-Feb-16 15:00N 38°28' W 009°18'4 7.0
2018-Feb-16 14:29N 38°31' W 009°21'2 4.2
2018-Feb-16 14:00N 38°33' W 009°23'1 2.0
2018-Feb-16 13:29N 38°33' W 009°24'1 2.3
2018-Feb-16 12:59N 38°34' W 009°25'1 1.6
2018-Feb-16 12:30N 38°35' W 009°25'2 4.5
2018-Feb-16 12:00N 38°37' W 009°24'1 1.9
2018-Feb-16 11:30N 38°36' W 009°24'0 0.4
2018-Feb-16 11:00N 38°36' W 009°24'1 2.3
2018-Feb-16 10:30N 38°36' W 009°23'1 2.2
2018-Feb-16 10:00N 38°36' W 009°24'1 1.7
2018-Feb-16 09:30N 38°36' W 009°25'1 1.9
2018-Feb-16 08:58N 38°36' W 009°26'0 0.7
2018-Feb-16 08:31N 38°36' W 009°27'1 2.1
2018-Feb-16 08:00N 38°35' W 009°25'1 2.3
2018-Feb-16 07:31N 38°35' W 009°24'1 1.6
2018-Feb-16 07:00N 38°35' W 009°23'0 0.8
2018-Feb-16 06:30N 38°35' W 009°23'1 2.0
2018-Feb-16 06:00N 38°35' W 009°24'1 1.5
2018-Feb-16 05:31N 38°35' W 009°25'0 0.8
2018-Feb-16 05:01N 38°35' W 009°25'4 8.0
2018-Feb-16 04:30N 38°32' W 009°22'4 8.0
2018-Feb-16 03:58N 38°29' W 009°18'4 8.0
2018-Feb-16 03:30N 38°26' W 009°15'4 6.7
2018-Feb-16 02:55N 38°25' W 009°10'3 7.6
2018-Feb-16 02:30N 38°26' W 009°07'0 0.6
2018-Feb-16 02:00N 38°26' W 009°07'0 0.0
2018-Feb-16 01:30N 38°26' W 009°07'0 0.0
2018-Feb-16 01:01N 38°26' W 009°07'0 0.0
2018-Feb-16 00:30N 38°26' W 009°07'0 0.0
2018-Feb-16 00:00N 38°26' W 009°07'0 0.0
2018-Feb-15 23:30N 38°26' W 009°07'0 0.0
2018-Feb-15 23:00N 38°26' W 009°07'0 0.0
2018-Feb-15 22:29N 38°26' W 009°07'0 0.0
2018-Feb-15 22:00N 38°26' W 009°07'0 0.0
2018-Feb-15 21:29N 38°26' W 009°07'0 0.0
2018-Feb-15 20:59N 38°26' W 009°07'0 0.0
2018-Feb-15 20:30N 38°26' W 009°07'0 0.0
2018-Feb-15 20:00N 38°26' W 009°07'0 0.0
2018-Feb-15 19:30N 38°26' W 009°07'0 0.0
2018-Feb-15 19:00N 38°26' W 009°07'0 0.0
2018-Feb-15 18:28N 38°26' W 009°07'0 0.0
2018-Feb-15 17:59N 38°26' W 009°07'0 0.0
2018-Feb-15 17:29N 38°26' W 009°07'0 0.0
2018-Feb-15 16:59N 38°26' W 009°07'0 0.2
2018-Feb-15 16:30N 38°26' W 009°07'0 0.5
2018-Feb-15 16:01N 38°26' W 009°06'5 8.6
2018-Feb-15 15:28N 38°24' W 009°12'4 8.5
2018-Feb-15 14:58N 38°26' W 009°17'4 8.6
2018-Feb-15 14:28N 38°28' W 009°22'2 5.3
2018-Feb-15 14:00N 38°29' W 009°24'1 1.7
2018-Feb-15 13:30N 38°30' W 009°24'1 1.4
2018-Feb-15 13:00N 38°31' W 009°24'0 0.5
2018-Feb-15 12:30N 38°31' W 009°24'0 0.7
2018-Feb-15 12:00N 38°31' W 009°24'0 0.9
2018-Feb-15 11:31N 38°32' W 009°24'2 4.3
2018-Feb-15 10:59N 38°34' W 009°25'3 5.3
2018-Feb-15 10:30N 38°35' W 009°22'3 6.4
2018-Feb-15 10:00N 38°36' W 009°27'3 6.8
2018-Feb-15 09:30N 38°36' W 009°22'1 2.2
2018-Feb-15 09:00N 38°37' W 009°23'1 2.0
2018-Feb-15 08:31N 38°37' W 009°24'0 0.5
2018-Feb-15 08:00N 38°37' W 009°24'1 2.5
2018-Feb-15 07:30N 38°37' W 009°23'0 0.8
2018-Feb-15 07:00N 38°37' W 009°23'1 2.5
2018-Feb-15 06:30N 38°36' W 009°25'1 1.6
2018-Feb-15 06:01N 38°36' W 009°24'1 2.1
2018-Feb-15 05:30N 38°36' W 009°22'1 2.4
2018-Feb-15 05:00N 38°36' W 009°24'3 5.4
2018-Feb-15 04:31N 38°33' W 009°24'4 8.3
2018-Feb-15 04:01N 38°29' W 009°24'4 7.6
2018-Feb-15 03:30N 38°27' W 009°20'4 7.6
2018-Feb-15 03:00N 38°26' W 009°16'4 7.0
2018-Feb-15 02:23N 38°25' W 009°10'3 7.4
2018-Feb-15 02:01N 38°26' W 009°07'0 0.4
2018-Feb-15 01:04N 38°26' W 009°07'0 0.0
2018-Feb-15 01:00N 38°26' W 009°07'0 0.0
2018-Feb-15 00:11N 38°26' W 009°07'0 0.0
2018-Feb-14 23:57N 38°26' W 009°07'0 0.0
2018-Feb-14 23:21N 38°26' W 009°07'0 0.0
2018-Feb-14 22:57N 38°26' W 009°07'0 0.0
2018-Feb-14 22:30N 38°26' W 009°07'0 0.0
2018-Feb-14 21:55N 38°26' W 009°07'0 0.0
2018-Feb-14 21:25N 38°26' W 009°07'0 0.0
2018-Feb-14 20:57N 38°26' W 009°07'0 0.0
2018-Feb-14 20:30N 38°26' W 009°07'0 0.0
2018-Feb-14 20:00N 38°26' W 009°07'0 0.3
2018-Feb-14 19:30N 38°26' W 009°07'0 0.3
2018-Feb-14 19:01N 38°26' W 009°07'4 7.7
2018-Feb-14 18:26N 38°24' W 009°12'4 7.7
2018-Feb-14 17:57N 38°26' W 009°16'4 8.2
2018-Feb-14 17:28N 38°28' W 009°20'4 8.1
2018-Feb-14 16:58N 38°31' W 009°24'2 4.0
2018-Feb-14 16:30N 38°33' W 009°25'1 2.1
2018-Feb-14 16:00N 38°32' W 009°24'1 2.4
2018-Feb-14 15:30N 38°32' W 009°22'1 1.2
2018-Feb-14 14:59N 38°33' W 009°22'3 6.6
2018-Feb-14 14:30N 38°35' W 009°24'1 2.3
2018-Feb-14 14:00N 38°36' W 009°25'0 0.8
2018-Feb-14 13:30N 38°37' W 009°25'2 4.8
2018-Feb-14 13:01N 38°37' W 009°22'1 2.4
2018-Feb-14 12:30N 38°37' W 009°20'0 0.9
2018-Feb-14 12:00N 38°37' W 009°21'1 1.6
2018-Feb-14 11:27N 38°37' W 009°22'1 1.8
2018-Feb-14 11:00N 38°37' W 009°23'1 1.1
2018-Feb-14 10:30N 38°37' W 009°23'1 2.6
2018-Feb-14 10:01N 38°36' W 009°22'1 2.6
2018-Feb-14 09:30N 38°36' W 009°20'1 2.0
2018-Feb-14 09:00N 38°36' W 009°21'1 2.5
2018-Feb-14 08:30N 38°36' W 009°23'0 0.8
2018-Feb-14 08:01N 38°36' W 009°23'2 3.4
2018-Feb-14 07:26N 38°35' W 009°22'3 7.7
2018-Feb-14 07:00N 38°32' W 009°19'4 7.9
2018-Feb-14 06:30N 38°29' W 009°17'4 8.0
2018-Feb-14 05:59N 38°25' W 009°14'4 6.8
2018-Feb-14 05:22N 38°25' W 009°08'2 2.1
2018-Feb-14 04:35N 38°26' W 009°07'0 0.0
2018-Feb-14 04:25N 38°26' W 009°07'0 0.0
2018-Feb-14 03:19N 38°26' W 009°07'0 0.0
2018-Feb-14 02:47N 38°26' W 009°07'0 0.0
2018-Feb-14 01:32N 38°26' W 009°07'0 0.0
2018-Feb-14 01:15N 38°26' W 009°07'0 0.0
2018-Feb-13 21:55N 38°26' W 009°07'0 0.0
2018-Feb-13 19:25N 38°26' W 009°07'0 0.2
2018-Feb-13 18:56N 38°26' W 009°07'0 0.1
2018-Feb-13 18:26N 38°26' W 009°07'0 0.0
2018-Feb-13 17:58N 38°26' W 009°07'3 6.1
2018-Feb-13 17:28N 38°25' W 009°10'4 7.4
2018-Feb-13 16:58N 38°26' W 009°15'  
Track history (hours):
 
Tides and Currents Weather Stations Pressure Air Temp Water Temp Dewpoint Dewpoint Depression Visibility Wind Speed Wind Dir Waves Ship Positions

Luze

Last reported at 2018-Feb-23 16:34 UTC. Time now 2018-Feb-25 22:08 UTC.
Position N 38°26' W 009°07'.

Length 20 m.

Type: Fishing. MMSI: 263500360.

Date/timePositionNaut miles runAvg speedWind from/ knotsBaromVisibWave heightAir tempDewpointWater temp
2018-Feb-23 16:34N 38°26' W 009°07'0 0.0
2018-Feb-23 16:30N 38°26' W 009°07'0 0.0
2018-Feb-21 18:00N 38°26' W 009°07'0 0.0
2018-Feb-21 17:30N 38°26' W 009°07'0 0.0
2018-Feb-21 17:00N 38°26' W 009°07'0 0.0
2018-Feb-21 16:30N 38°26' W 009°07'0 0.0
2018-Feb-21 16:00N 38°26' W 009°07'0 0.0
2018-Feb-21 15:30N 38°26' W 009°07'0 0.2
2018-Feb-21 15:00N 38°26' W 009°07'2 3.1
2018-Feb-21 14:30N 38°25' W 009°08'4 8.2
2018-Feb-21 14:00N 38°25' W 009°13'4 8.3
2018-Feb-21 13:30N 38°28' W 009°17'4 8.3
2018-Feb-21 13:00N 38°31' W 009°19'4 8.4
2018-Feb-21 12:29N 38°35' W 009°22'0 0.5
2018-Feb-21 11:59N 38°35' W 009°22'1 1.4
2018-Feb-21 11:30N 38°35' W 009°22'1 1.3
2018-Feb-21 11:00N 38°34' W 009°21'1 1.8
2018-Feb-21 10:30N 38°33' W 009°22'1 1.9
2018-Feb-21 09:57N 38°34' W 009°22'1 2.1
2018-Feb-21 09:29N 38°35' W 009°23'1 1.9
2018-Feb-21 09:01N 38°36' W 009°24'1 1.5
2018-Feb-21 08:30N 38°35' W 009°23'1 2.1
2018-Feb-21 08:00N 38°34' W 009°23'1 1.5
2018-Feb-21 07:31N 38°33' W 009°23'1 2.0
2018-Feb-21 07:01N 38°33' W 009°22'1 1.4
2018-Feb-21 06:30N 38°32' W 009°22'1 1.3
2018-Feb-21 06:00N 38°31' W 009°21'1 1.2
2018-Feb-21 05:30N 38°31' W 009°21'0 1.0
2018-Feb-21 05:00N 38°31' W 009°20'2 3.8
2018-Feb-21 04:30N 38°29' W 009°19'3 5.1
2018-Feb-21 03:59N 38°27' W 009°16'3 7.2
2018-Feb-21 03:30N 38°25' W 009°14'4 7.1
2018-Feb-21 03:00N 38°25' W 009°09'2 4.4
2018-Feb-21 02:30N 38°26' W 009°07'0 0.2
2018-Feb-21 02:00N 38°26' W 009°07'0 0.1
2018-Feb-21 01:30N 38°26' W 009°07'0 0.0
2018-Feb-21 01:00N 38°26' W 009°07'0 0.0
2018-Feb-21 00:30N 38°26' W 009°07'0 0.0
2018-Feb-21 00:01N 38°26' W 009°07'0 0.0
2018-Feb-20 23:30N 38°26' W 009°07'0 0.0
2018-Feb-20 23:00N 38°26' W 009°07'0 0.0
2018-Feb-20 22:30N 38°26' W 009°07'0 0.0
2018-Feb-20 22:00N 38°26' W 009°07'0 0.0
2018-Feb-20 21:30N 38°26' W 009°07'0 0.0
2018-Feb-20 21:00N 38°26' W 009°07'0 0.0
2018-Feb-20 20:30N 38°26' W 009°07'0 0.0
2018-Feb-20 20:00N 38°26' W 009°07'0 0.0
2018-Feb-20 19:27N 38°26' W 009°07'0 0.0
2018-Feb-20 19:00N 38°26' W 009°07'0 0.0
2018-Feb-20 18:28N 38°26' W 009°07'2 4.8
2018-Feb-20 18:00N 38°25' W 009°09'3 6.6
2018-Feb-20 17:30N 38°23' W 009°13'4 8.7
2018-Feb-20 17:00N 38°27' W 009°16'4 8.6
2018-Feb-20 16:30N 38°30' W 009°20'4 8.5
2018-Feb-20 16:00N 38°33' W 009°23'1 2.6
2018-Feb-20 15:30N 38°35' W 009°23'1 1.2
2018-Feb-20 15:00N 38°35' W 009°22'3 4.9
2018-Feb-20 14:30N 38°36' W 009°19'1 1.7
2018-Feb-20 13:56N 38°37' W 009°20'1 1.1
2018-Feb-20 13:29N 38°37' W 009°20'1 2.1
2018-Feb-20 12:59N 38°36' W 009°20'1 1.4
2018-Feb-20 12:30N 38°35' W 009°21'0 0.1
2018-Feb-20 11:47N 38°35' W 009°21'0 0.4
2018-Feb-20 11:30N 38°35' W 009°21'0 0.3
2018-Feb-20 11:00N 38°35' W 009°21'1 1.5
2018-Feb-20 10:29N 38°36' W 009°21'0 0.4
2018-Feb-20 10:00N 38°36' W 009°22'0 0.3
2018-Feb-20 09:30N 38°36' W 009°22'1 1.3
2018-Feb-20 08:59N 38°36' W 009°22'1 2.4
2018-Feb-20 08:30N 38°37' W 009°23'0 0.8
2018-Feb-20 08:00N 38°37' W 009°24'1 2.5
2018-Feb-20 07:30N 38°36' W 009°23'1 1.6
2018-Feb-20 07:00N 38°36' W 009°22'1 1.1
2018-Feb-20 06:30N 38°36' W 009°21'1 1.1
2018-Feb-20 06:00N 38°35' W 009°21'2 3.5
2018-Feb-20 05:30N 38°37' W 009°20'3 5.6
2018-Feb-20 05:00N 38°34' W 009°19'4 7.5
2018-Feb-20 04:30N 38°31' W 009°17'4 7.4
2018-Feb-20 04:01N 38°27' W 009°15'3 6.7
2018-Feb-20 03:30N 38°24' W 009°13'4 7.2
2018-Feb-20 03:00N 38°25' W 009°08'2 3.1
2018-Feb-20 02:30N 38°26' W 009°07'0 0.0
2018-Feb-20 02:01N 38°26' W 009°07'0 0.0
2018-Feb-20 01:30N 38°26' W 009°07'0 0.0
2018-Feb-20 01:01N 38°26' W 009°07'0 0.0
2018-Feb-20 00:30N 38°26' W 009°07'0 0.0
2018-Feb-20 00:00N 38°26' W 009°07'0 0.0
2018-Feb-19 23:30N 38°26' W 009°07'0 0.0
2018-Feb-19 23:00N 38°26' W 009°07'0 0.0
2018-Feb-19 22:30N 38°26' W 009°07'0 0.0
2018-Feb-19 22:00N 38°26' W 009°07'0 0.0
2018-Feb-19 21:28N 38°26' W 009°07'0 0.0
2018-Feb-19 20:59N 38°26' W 009°07'0 0.0
2018-Feb-19 20:30N 38°26' W 009°07'0 0.0
2018-Feb-19 19:00N 38°26' W 009°07'0 0.0
2018-Feb-19 18:30N 38°26' W 009°07'0 0.0
2018-Feb-19 17:57N 38°26' W 009°07'0 0.0
2018-Feb-19 17:30N 38°26' W 009°07'0 0.2
2018-Feb-19 17:01N 38°26' W 009°07'1 1.7
2018-Feb-19 16:31N 38°26' W 009°07'4 8.5
2018-Feb-19 16:01N 38°24' W 009°13'4 8.3
2018-Feb-19 15:29N 38°28' W 009°16'4 8.5
2018-Feb-19 15:00N 38°31' W 009°18'4 8.4
2018-Feb-19 14:30N 38°35' W 009°21'1 1.7
2018-Feb-19 14:00N 38°36' W 009°22'1 2.1
2018-Feb-19 13:30N 38°36' W 009°23'2 3.3
2018-Feb-19 13:00N 38°35' W 009°21'1 1.7
2018-Feb-19 12:29N 38°36' W 009°21'1 1.4
2018-Feb-19 12:00N 38°37' W 009°22'0 1.0
2018-Feb-19 11:30N 38°37' W 009°23'1 1.8
2018-Feb-19 11:01N 38°36' W 009°22'0 0.3
2018-Feb-19 10:27N 38°36' W 009°22'0 0.8
2018-Feb-19 10:01N 38°36' W 009°22'1 2.4
2018-Feb-19 09:30N 38°34' W 009°21'0 0.9
2018-Feb-19 09:01N 38°34' W 009°21'1 2.2
2018-Feb-19 08:30N 38°35' W 009°22'1 2.0
2018-Feb-19 08:01N 38°36' W 009°22'1 1.8
2018-Feb-19 07:30N 38°37' W 009°23'3 5.8
2018-Feb-19 07:00N 38°35' W 009°20'0 0.3
2018-Feb-19 06:30N 38°34' W 009°20'2 3.4
2018-Feb-19 06:00N 38°33' W 009°22'1 1.1
2018-Feb-19 05:30N 38°33' W 009°22'0 0.7
2018-Feb-19 04:58N 38°33' W 009°22'0 0.8
2018-Feb-19 04:30N 38°33' W 009°22'3 6.6
2018-Feb-19 04:01N 38°31' W 009°20'3 6.9
2018-Feb-19 03:30N 38°27' W 009°18'3 6.8
2018-Feb-19 03:01N 38°24' W 009°16'3 6.7
2018-Feb-19 02:31N 38°22' W 009°13'3 6.5
2018-Feb-19 02:00N 38°19' W 009°11'3 6.1
2018-Feb-19 01:30N 38°17' W 009°09'3 6.2
2018-Feb-19 01:00N 38°14' W 009°06'3 5.9
2018-Feb-19 00:30N 38°11' W 009°05'3 5.8
2018-Feb-19 00:01N 38°09' W 009°03'3 6.2
2018-Feb-18 23:30N 38°06' W 009°01'4 7.1
2018-Feb-18 23:00N 38°02' W 009°01'0 0.4
2018-Feb-18 22:30N 38°02' W 009°01'1 2.3
2018-Feb-18 22:00N 38°03' W 009°01'1 2.2
2018-Feb-18 21:31N 38°05' W 009°01'1 1.6
2018-Feb-18 21:01N 38°05' W 009°01'1 1.8
2018-Feb-18 20:30N 38°06' W 009°01'1 1.6
2018-Feb-18 20:01N 38°07' W 009°01'2 4.6
2018-Feb-18 19:30N 38°09' W 009°01'3 5.3
2018-Feb-18 19:01N 38°10' W 009°04'1 2.0
2018-Feb-18 18:30N 38°11' W 009°04'1 1.8
2018-Feb-18 18:00N 38°11' W 009°04'1 2.1
2018-Feb-18 17:30N 38°10' W 009°04'1 1.5
2018-Feb-18 17:01N 38°09' W 009°04'3 5.2
2018-Feb-18 16:30N 38°12' W 009°05'1 1.2
2018-Feb-18 16:01N 38°11' W 009°05'1 1.9
2018-Feb-18 15:31N 38°10' W 009°05'1 1.6
2018-Feb-18 15:00N 38°09' W 009°05'0 0.6
2018-Feb-18 14:31N 38°09' W 009°05'3 6.8
2018-Feb-18 14:01N 38°06' W 009°03'2 4.8
2018-Feb-18 13:31N 38°09' W 009°03'1 1.5
2018-Feb-18 13:00N 38°08' W 009°03'1 2.1
2018-Feb-18 12:31N 38°07' W 009°03'1 2.1
2018-Feb-18 12:00N 38°06' W 009°03'1 3.0
2018-Feb-18 11:30N 38°07' W 009°04'1 1.6
2018-Feb-18 11:00N 38°08' W 009°04'1 1.7
2018-Feb-18 10:30N 38°08' W 009°05'1 1.5
2018-Feb-18 10:00N 38°09' W 009°05'3 5.7
2018-Feb-18 09:31N 38°12' W 009°07'3 5.6
2018-Feb-18 09:00N 38°14' W 009°09'3 5.8
2018-Feb-18 08:30N 38°16' W 009°11'3 5.9
2018-Feb-18 08:00N 38°19' W 009°12'3 5.9
2018-Feb-18 07:29N 38°22' W 009°14'3 5.9
2018-Feb-18 07:00N 38°24' W 009°16'3 6.1
2018-Feb-18 06:30N 38°27' W 009°17'3 6.2
2018-Feb-18 05:59N 38°30' W 009°19'3 6.1
2018-Feb-18 05:30N 38°33' W 009°21'3 5.7
2018-Feb-18 04:59N 38°35' W 009°22'0 0.5
2018-Feb-18 04:30N 38°35' W 009°22'1 2.6
2018-Feb-18 03:59N 38°34' W 009°22'1 2.0
2018-Feb-18 03:30N 38°33' W 009°22'2 4.7
2018-Feb-18 02:59N 38°35' W 009°21'1 2.6
2018-Feb-18 02:30N 38°36' W 009°22'1 1.5
2018-Feb-18 02:00N 38°35' W 009°22'2 3.2
2018-Feb-18 01:30N 38°37' W 009°23'4 7.1
2018-Feb-18 01:00N 38°39' W 009°19'3 5.3
2018-Feb-18 00:28N 38°41' W 009°17'3 5.3
2018-Feb-17 23:59N 38°42' W 009°14'0 0.0
2018-Feb-17 23:30N 38°42' W 009°14'0 0.0
2018-Feb-17 23:00N 38°42' W 009°14'0 0.0
2018-Feb-17 22:30N 38°42' W 009°14'0 0.0
2018-Feb-17 21:53N 38°42' W 009°14'0 0.0
2018-Feb-17 21:30N 38°42' W 009°14'0 0.0
2018-Feb-17 21:00N 38°42' W 009°14'0 0.0
2018-Feb-17 20:29N 38°42' W 009°14'0 0.0
2018-Feb-17 20:00N 38°42' W 009°14'0 0.0
2018-Feb-17 19:30N 38°42' W 009°14'0 0.0
2018-Feb-17 19:00N 38°42' W 009°14'0 0.0
2018-Feb-17 18:30N 38°42' W 009°14'0 0.0
2018-Feb-17 17:58N 38°42' W 009°14'0 0.0
2018-Feb-17 17:30N 38°42' W 009°14'0 0.0
2018-Feb-17 16:59N 38°42' W 009°14'0 0.0
2018-Feb-17 16:30N 38°42' W 009°14'0 0.0
2018-Feb-17 16:00N 38°42' W 009°14'0 0.0
2018-Feb-17 15:29N 38°42' W 009°14'0 0.0
2018-Feb-17 14:58N 38°42' W 009°14'0 0.5
2018-Feb-17 14:30N 38°41' W 009°14'510.1
2018-Feb-17 14:00N 38°39' W 009°19'3 6.5
2018-Feb-17 13:30N 38°37' W 009°23'1 1.8
2018-Feb-17 13:00N 38°37' W 009°24'0 0.5
2018-Feb-17 12:31N 38°37' W 009°24'1 2.5
2018-Feb-17 11:59N 38°37' W 009°23'0 0.2
2018-Feb-17 11:31N 38°37' W 009°22'1 1.0
2018-Feb-17 11:00N 38°37' W 009°23'1 1.9
2018-Feb-17 10:31N 38°36' W 009°24'1 1.1
2018-Feb-17 10:01N 38°36' W 009°23'1 1.6
2018-Feb-17 09:30N 38°37' W 009°22'0 0.7
2018-Feb-17 09:00N 38°37' W 009°22'0 0.2
2018-Feb-17 08:31N 38°37' W 009°22'0 0.4
2018-Feb-17 08:00N 38°37' W 009°22'1 1.3
2018-Feb-17 07:31N 38°37' W 009°23'1 1.2
2018-Feb-17 07:00N 38°37' W 009°24'1 1.3
2018-Feb-17 06:30N 38°37' W 009°23'1 1.0
2018-Feb-17 06:01N 38°37' W 009°22'0 0.2
2018-Feb-17 05:27N 38°36' W 009°23'0 0.5
2018-Feb-17 05:00N 38°36' W 009°23'1 1.3
2018-Feb-17 04:30N 38°36' W 009°22'4 7.5
2018-Feb-17 03:59N 38°32' W 009°21'4 8.3
2018-Feb-17 03:29N 38°29' W 009°17'4 8.1
2018-Feb-17 03:00N 38°25' W 009°14'4 6.8
2018-Feb-17 02:22N 38°25' W 009°09'2 6.1
2018-Feb-17 02:01N 38°26' W 009°07'0 0.3
2018-Feb-17 01:23N 38°26' W 009°07'0 0.0
2018-Feb-17 01:00N 38°26' W 009°07'0 0.0
2018-Feb-17 00:22N 38°26' W 009°07'0 0.0
2018-Feb-16 23:58N 38°26' W 009°07'0 0.0
2018-Feb-16 23:30N 38°26' W 009°07'0 0.0
2018-Feb-16 22:12N 38°26' W 009°07'0 0.0
2018-Feb-16 21:53N 38°26' W 009°07'0 0.0
2018-Feb-16 20:35N 38°26' W 009°07'0 0.0
2018-Feb-16 20:27N 38°26' W 009°07'0 0.0
2018-Feb-16 20:00N 38°26' W 009°07'0 0.0
2018-Feb-16 19:29N 38°26' W 009°07'0 0.0
2018-Feb-16 19:00N 38°26' W 009°07'0 0.0
2018-Feb-16 18:30N 38°26' W 009°07'0 0.0
2018-Feb-16 17:57N 38°26' W 009°07'0 0.0
2018-Feb-16 17:12N 38°26' W 009°07'0 0.6
2018-Feb-16 17:00N 38°26' W 009°07'0 0.0
2018-Feb-16 16:30N 38°26' W 009°07'3 5.1
2018-Feb-16 16:01N 38°25' W 009°09'4 8.2
2018-Feb-16 15:31N 38°25' W 009°15'4 8.5
2018-Feb-16 15:00N 38°28' W 009°18'4 7.0
2018-Feb-16 14:29N 38°31' W 009°21'2 4.2
2018-Feb-16 14:00N 38°33' W 009°23'1 2.0
2018-Feb-16 13:29N 38°33' W 009°24'1 2.3
2018-Feb-16 12:59N 38°34' W 009°25'1 1.6
2018-Feb-16 12:30N 38°35' W 009°25'2 4.5
2018-Feb-16 12:00N 38°37' W 009°24'1 1.9
2018-Feb-16 11:30N 38°36' W 009°24'0 0.4
2018-Feb-16 11:00N 38°36' W 009°24'1 2.3
2018-Feb-16 10:30N 38°36' W 009°23'1 2.2
2018-Feb-16 10:00N 38°36' W 009°24'1 1.7
2018-Feb-16 09:30N 38°36' W 009°25'1 1.9
2018-Feb-16 08:58N 38°36' W 009°26'0 0.7
2018-Feb-16 08:31N 38°36' W 009°27'1 2.1
2018-Feb-16 08:00N 38°35' W 009°25'1 2.3
2018-Feb-16 07:31N 38°35' W 009°24'1 1.6
2018-Feb-16 07:00N 38°35' W 009°23'0 0.8
2018-Feb-16 06:30N 38°35' W 009°23'1 2.0
2018-Feb-16 06:00N 38°35' W 009°24'1 1.5
2018-Feb-16 05:31N 38°35' W 009°25'0 0.8
2018-Feb-16 05:01N 38°35' W 009°25'4 8.0
2018-Feb-16 04:30N 38°32' W 009°22'4 8.0
2018-Feb-16 03:58N 38°29' W 009°18'4 8.0
2018-Feb-16 03:30N 38°26' W 009°15'4 6.7
2018-Feb-16 02:55N 38°25' W 009°10'3 7.6
2018-Feb-16 02:30N 38°26' W 009°07'0 0.6
2018-Feb-16 02:00N 38°26' W 009°07'0 0.0
2018-Feb-16 01:30N 38°26' W 009°07'0 0.0
2018-Feb-16 01:01N 38°26' W 009°07'0 0.0
2018-Feb-16 00:30N 38°26' W 009°07'0 0.0
2018-Feb-16 00:00N 38°26' W 009°07'0 0.0
2018-Feb-15 23:30N 38°26' W 009°07'0 0.0
2018-Feb-15 23:00N 38°26' W 009°07'0 0.0
2018-Feb-15 22:29N 38°26' W 009°07'0 0.0
2018-Feb-15 22:00N 38°26' W 009°07'0 0.0
2018-Feb-15 21:29N 38°26' W 009°07'0 0.0
2018-Feb-15 20:59N 38°26' W 009°07'0 0.0
2018-Feb-15 20:30N 38°26' W 009°07'0 0.0
2018-Feb-15 20:00N 38°26' W 009°07'0 0.0
2018-Feb-15 19:30N 38°26' W 009°07'0 0.0
2018-Feb-15 19:00N 38°26' W 009°07'0 0.0
2018-Feb-15 18:28N 38°26' W 009°07'0 0.0
2018-Feb-15 17:59N 38°26' W 009°07'0 0.0
2018-Feb-15 17:29N 38°26' W 009°07'0 0.0
2018-Feb-15 16:59N 38°26' W 009°07'0 0.2
2018-Feb-15 16:30N 38°26' W 009°07'0 0.5
2018-Feb-15 16:01N 38°26' W 009°06'5 8.6
2018-Feb-15 15:28N 38°24' W 009°12'4 8.5
2018-Feb-15 14:58N 38°26' W 009°17'4 8.6
2018-Feb-15 14:28N 38°28' W 009°22'2 5.3
2018-Feb-15 14:00N 38°29' W 009°24'1 1.7
2018-Feb-15 13:30N 38°30' W 009°24'1 1.4
2018-Feb-15 13:00N 38°31' W 009°24'0 0.5
2018-Feb-15 12:30N 38°31' W 009°24'0 0.7
2018-Feb-15 12:00N 38°31' W 009°24'0 0.9
2018-Feb-15 11:31N 38°32' W 009°24'2 4.3
2018-Feb-15 10:59N 38°34' W 009°25'3 5.3
2018-Feb-15 10:30N 38°35' W 009°22'3 6.4
2018-Feb-15 10:00N 38°36' W 009°27'3 6.8
2018-Feb-15 09:30N 38°36' W 009°22'1 2.2
2018-Feb-15 09:00N 38°37' W 009°23'1 2.0
2018-Feb-15 08:31N 38°37' W 009°24'0 0.5
2018-Feb-15 08:00N 38°37' W 009°24'1 2.5
2018-Feb-15 07:30N 38°37' W 009°23'0 0.8
2018-Feb-15 07:00N 38°37' W 009°23'1 2.5
2018-Feb-15 06:30N 38°36' W 009°25'1 1.6
2018-Feb-15 06:01N 38°36' W 009°24'1 2.1
2018-Feb-15 05:30N 38°36' W 009°22'1 2.4
2018-Feb-15 05:00N 38°36' W 009°24'3 5.4
2018-Feb-15 04:31N 38°33' W 009°24'4 8.3
2018-Feb-15 04:01N 38°29' W 009°24'4 7.6
2018-Feb-15 03:30N 38°27' W 009°20'4 7.6
2018-Feb-15 03:00N 38°26' W 009°16'4 7.0
2018-Feb-15 02:23N 38°25' W 009°10'3 7.4
2018-Feb-15 02:01N 38°26' W 009°07'0 0.4
2018-Feb-15 01:04N 38°26' W 009°07'0 0.0
2018-Feb-15 01:00N 38°26' W 009°07'0 0.0
2018-Feb-15 00:11N 38°26' W 009°07'0 0.0
2018-Feb-14 23:57N 38°26' W 009°07'0 0.0
2018-Feb-14 23:21N 38°26' W 009°07'0 0.0
2018-Feb-14 22:57N 38°26' W 009°07'0 0.0
2018-Feb-14 22:30N 38°26' W 009°07'0 0.0
2018-Feb-14 21:55N 38°26' W 009°07'0 0.0
2018-Feb-14 21:25N 38°26' W 009°07'0 0.0
2018-Feb-14 20:57N 38°26' W 009°07'0 0.0
2018-Feb-14 20:30N 38°26' W 009°07'0 0.0
2018-Feb-14 20:00N 38°26' W 009°07'0 0.3
2018-Feb-14 19:30N 38°26' W 009°07'0 0.3
2018-Feb-14 19:01N 38°26' W 009°07'4 7.7
2018-Feb-14 18:26N 38°24' W 009°12'4 7.7
2018-Feb-14 17:57N 38°26' W 009°16'4 8.2
2018-Feb-14 17:28N 38°28' W 009°20'4 8.1
2018-Feb-14 16:58N 38°31' W 009°24'2 4.0
2018-Feb-14 16:30N 38°33' W 009°25'1 2.1
2018-Feb-14 16:00N 38°32' W 009°24'1 2.4
2018-Feb-14 15:30N 38°32' W 009°22'1 1.2
2018-Feb-14 14:59N 38°33' W 009°22'3 6.6
2018-Feb-14 14:30N 38°35' W 009°24'1 2.3
2018-Feb-14 14:00N 38°36' W 009°25'0 0.8
2018-Feb-14 13:30N 38°37' W 009°25'2 4.8
2018-Feb-14 13:01N 38°37' W 009°22'1 2.4
2018-Feb-14 12:30N 38°37' W 009°20'0 0.9
2018-Feb-14 12:00N 38°37' W 009°21'1 1.6
2018-Feb-14 11:27N 38°37' W 009°22'1 1.8
2018-Feb-14 11:00N 38°37' W 009°23'1 1.1
2018-Feb-14 10:30N 38°37' W 009°23'1 2.6
2018-Feb-14 10:01N 38°36' W 009°22'1 2.6
2018-Feb-14 09:30N 38°36' W 009°20'1 2.0
2018-Feb-14 09:00N 38°36' W 009°21'1 2.5
2018-Feb-14 08:30N 38°36' W 009°23'0 0.8
2018-Feb-14 08:01N 38°36' W 009°23'2 3.4
2018-Feb-14 07:26N 38°35' W 009°22'3 7.7
2018-Feb-14 07:00N 38°32' W 009°19'4 7.9
2018-Feb-14 06:30N 38°29' W 009°17'4 8.0
2018-Feb-14 05:59N 38°25' W 009°14'4 6.8
2018-Feb-14 05:22N 38°25' W 009°08'2 2.1
2018-Feb-14 04:35N 38°26' W 009°07'0 0.0
2018-Feb-14 04:25N 38°26' W 009°07'0 0.0
2018-Feb-14 03:19N 38°26' W 009°07'0 0.0
2018-Feb-14 02:47N 38°26' W 009°07'0 0.0
2018-Feb-14 01:32N 38°26' W 009°07'0 0.0
2018-Feb-14 01:15N 38°26' W 009°07'0 0.0
2018-Feb-13 21:55N 38°26' W 009°07'0 0.0
2018-Feb-13 19:25N 38°26' W 009°07'0 0.2
2018-Feb-13 18:56N 38°26' W 009°07'0 0.1
2018-Feb-13 18:26N 38°26' W 009°07'0 0.0
2018-Feb-13 17:58N 38°26' W 009°07'3 6.1
2018-Feb-13 17:28N 38°25' W 009°10'4 7.4
2018-Feb-13 16:58N 38°26' W 009°15'  

Dump ship's entire track history